Time;durP1;ratioP1;P1;durP2;ratioP2;P2;SDS_P1;SDS_P2;PMS_P1;PMS_P2;Temp;Humidity;BMP_temperature;BMP_pressure;BME280_temperature;BME280_humidity;BME280_pressure;Samples;Min_cycle;Max_cycle;Signal;HPM_P1;HPM_P2
2022/11/29 07:06:38;;;;;;;21.55;17.38;;;;;;;6.47;100.00;101551.13;5321577;27;20388;-75
2022/11/29 07:09:17;;;;;;;22.20;17.10;;;;;;;6.37;100.00;101553.69;5318274;28;20470;-75
2022/11/29 07:11:48;;;;;;;19.98;17.88;;;;;;;6.44;100.00;101557.13;5301085;28;20375;-75
2022/11/29 07:14:20;;;;;;;23.05;18.25;;;;;;;6.55;100.00;101563.69;5288410;28;20032;-74
2022/11/29 07:17:06;;;;;;;25.50;18.25;;;;;;;6.57;100.00;101560.66;5283961;28;20481;-75
2022/11/29 07:19:59;;;;;;;21.10;18.15;;;;;;;6.62;100.00;101569.03;5303360;28;20024;-74
2022/11/29 07:22:55;;;;;;;26.60;18.48;;;;;;;6.69;100.00;101566.97;5293134;28;20016;-74
2022/11/29 07:25:35;;;;;;;21.73;17.27;;;;;;;6.72;100.00;101569.22;5287190;28;20492;-76
2022/11/29 07:28:31;;;;;;;23.08;16.95;;;;;;;6.77;100.00;101583.13;5296207;28;20027;-75
2022/11/29 07:31:30;;;;;;;20.13;17.05;;;;;;;6.76;100.00;101578.69;5286005;28;20107;-75
2022/11/29 07:34:35;;;;;;;20.73;15.80;;;;;;;6.73;100.00;101582.78;5300304;28;20386;-75
2022/11/29 07:37:31;;;;;;;20.25;16.08;;;;;;;6.68;100.00;101590.13;5287934;28;20016;-75
2022/11/29 07:40:14;;;;;;;23.13;17.48;;;;;;;6.73;100.00;101592.97;5284068;28;20372;-76
2022/11/29 07:43:10;;;;;;;21.77;17.90;;;;;;;6.77;100.00;101599.66;5278184;28;20391;-75
2022/11/29 07:45:42;;;;;;;24.50;17.80;;;;;;;6.76;100.00;101603.50;5292155;28;20067;-75
2022/11/29 07:48:15;;;;;;;18.23;14.38;;;;;;;6.84;100.00;101605.88;5293780;28;20048;-75
2022/11/29 07:50:47;;;;;;;17.10;15.05;;;;;;;6.67;100.00;101604.97;5296834;28;20056;-74
2022/11/29 07:53:20;;;;;;;20.45;14.80;;;;;;;6.58;100.00;101611.97;5306586;28;20020;-75
2022/11/29 07:55:51;;;;;;;20.33;15.15;;;;;;;6.57;100.00;101599.25;5304685;28;20071;-75
2022/11/29 07:58:23;;;;;;;23.55;15.23;;;;;;;6.44;100.00;101615.00;5301280;28;20055;-75
2022/11/29 08:00:54;;;;;;;25.15;15.68;;;;;;;6.51;100.00;101607.41;5289281;28;20031;-79
2022/11/29 08:03:25;;;;;;;24.88;16.70;;;;;;;6.51;100.00;101609.34;5320548;28;20015;-78
2022/11/29 08:05:57;;;;;;;22.45;16.67;;;;;;;6.59;100.00;101605.38;5316492;28;20048;-77
2022/11/29 08:08:28;;;;;;;29.65;16.60;;;;;;;6.61;100.00;101606.78;5284694;28;20112;-78
2022/11/29 08:10:59;;;;;;;25.95;17.25;;;;;;;6.51;100.00;101615.69;5311304;28;20110;-78
2022/11/29 08:13:31;;;;;;;32.08;17.05;;;;;;;6.57;100.00;101613.03;5295675;28;20032;-78
2022/11/29 08:16:02;;;;;;;25.95;17.15;;;;;;;6.71;100.00;101611.69;5279316;28;20025;-78
2022/11/29 08:18:35;;;;;;;25.10;17.17;;;;;;;6.72;100.00;101624.38;5278871;28;20096;-77
2022/11/29 08:21:08;;;;;;;26.63;17.65;;;;;;;6.82;100.00;101626.50;5278105;28;20040;-77
2022/11/29 08:23:39;;;;;;;27.67;16.70;;;;;;;6.89;100.00;101619.75;5283008;28;20479;-78
2022/11/29 08:26:10;;;;;;;25.45;17.00;;;;;;;6.93;100.00;101615.44;5275114;28;20161;-71
2022/11/29 08:28:42;;;;;;;28.75;18.48;;;;;;;6.96;100.00;101620.44;5306460;28;20028;-69
2022/11/29 08:31:13;;;;;;;30.20;18.42;;;;;;;7.09;100.00;101626.75;5292377;28;20028;-69
2022/11/29 08:33:45;;;;;;;21.17;16.67;;;;;;;7.05;100.00;101625.56;5306675;28;20031;-69
2022/11/29 08:36:18;;;;;;;24.95;18.27;;;;;;;7.15;100.00;101632.09;5298904;28;20032;-69
2022/11/29 08:38:49;;;;;;;25.55;18.88;;;;;;;7.10;100.00;101631.16;5263618;28;20029;-68
2022/11/29 08:41:21;;;;;;;24.70;16.48;;;;;;;7.14;100.00;101633.19;5264413;28;20025;-68
2022/11/29 08:43:52;;;;;;;26.98;17.65;;;;;;;7.14;100.00;101637.88;5266971;28;20062;-68
2022/11/29 08:47:34;;;;;;;25.98;18.10;;;;;;;7.13;100.00;101637.06;5276873;28;20498;-68
2022/11/29 08:49:15;;;;;;;25.13;17.40;;;;;;;7.16;100.00;101646.75;5269323;28;20482;-66
2022/11/29 08:51:46;;;;;;;29.45;18.08;;;;;;;7.14;100.00;101652.50;5275519;28;20028;-67
2022/11/29 08:54:20;;;;;;;31.05;17.67;;;;;;;7.17;100.00;101648.41;5274975;28;20017;-66
2022/11/29 08:56:51;;;;;;;28.30;18.10;;;;;;;7.16;100.00;101641.22;5284959;28;20031;-67
2022/11/29 08:59:23;;;;;;;32.05;23.33;;;;;;;7.13;100.00;101641.69;5279104;28;20491;-68
2022/11/29 09:01:54;;;;;;;27.08;17.73;;;;;;;7.23;100.00;101652.94;5270602;28;20394;-68
2022/11/29 09:04:25;;;;;;;25.70;17.10;;;;;;;7.24;100.00;101649.09;5289166;28;22024;-68
2022/11/29 09:06:57;;;;;;;32.13;17.95;;;;;;;7.21;100.00;101652.38;5293272;28;20056;-68
2022/11/29 09:09:28;;;;;;;28.98;19.98;;;;;;;7.15;100.00;101658.84;5273677;28;20372;-68
2022/11/29 09:12:01;;;;;;;30.75;19.27;;;;;;;7.23;100.00;101652.09;5263812;28;20021;-68
2022/11/29 09:14:32;;;;;;;27.13;19.17;;;;;;;7.19;100.00;101662.81;5283040;28;20028;-67
2022/11/29 09:17:03;;;;;;;28.10;20.52;;;;;;;7.20;100.00;101658.94;5284151;28;20033;-66
2022/11/29 09:19:34;;;;;;;32.58;21.00;;;;;;;7.18;100.00;101666.63;5284038;28;20020;-68
2022/11/29 09:22:06;;;;;;;29.58;21.17;;;;;;;7.16;100.00;101663.31;5264695;28;20044;-67
2022/11/29 09:24:37;;;;;;;46.17;21.45;;;;;;;7.17;100.00;101662.22;5265874;28;20082;-68
2022/11/29 09:27:08;;;;;;;33.55;20.45;;;;;;;7.00;100.00;101662.16;5283285;28;20075;-69
2022/11/29 09:29:40;;;;;;;37.78;20.23;;;;;;;6.81;100.00;101680.81;5282975;28;20020;-67
2022/11/29 09:32:11;;;;;;;32.45;20.13;;;;;;;6.92;100.00;101676.34;5284186;28;20029;-68
2022/11/29 09:34:42;;;;;;;41.90;21.40;;;;;;;7.03;100.00;101683.75;5271079;28;20120;-68
2022/11/29 09:37:13;;;;;;;39.75;23.80;;;;;;;7.13;100.00;101685.84;5263987;28;20506;-68
2022/11/29 09:39:45;;;;;;;40.20;24.05;;;;;;;7.23;100.00;101685.22;5270271;28;20025;-68
2022/11/29 09:42:48;;;;;;;37.42;22.35;;;;;;;7.28;100.00;101699.94;5303149;28;20024;-67
2022/11/29 09:45:28;;;;;;;168.25;129.43;;;;;;;7.32;100.00;101703.06;5303640;28;20021;-67
2022/11/29 09:48:25;;;;;;;34.80;23.52;;;;;;;7.38;100.00;101705.63;5283581;28;20899;-67
2022/11/29 09:51:30;;;;;;;45.72;19.63;;;;;;;7.36;100.00;101702.31;5283143;28;20033;-66
2022/11/29 09:54:26;;;;;;;29.48;19.88;;;;;;;7.39;100.00;101707.34;5279780;28;20178;-67
2022/11/29 09:56:57;;;;;;;28.35;20.02;;;;;;;7.35;100.00;101706.13;5264323;28;20029;-66
2022/11/29 09:59:48;;;;;;;31.42;20.25;;;;;;;7.37;100.00;101709.50;5262028;28;20036;-66
2022/11/29 10:02:44;;;;;;;27.83;17.58;;;;;;;7.30;100.00;101710.72;5277575;28;20112;-66
2022/11/29 10:05:21;;;;;;;25.23;16.50;;;;;;;7.24;100.00;101712.56;5266967;28;20037;-67
2022/11/29 10:08:02;;;;;;;29.33;18.60;;;;;;;7.23;100.00;101713.63;5286333;28;20027;-67
2022/11/29 10:10:44;;;;;;;26.10;19.20;;;;;;;7.21;100.00;101710.31;5263988;28;20071;-67
2022/11/29 10:13:24;;;;;;;25.73;18.05;;;;;;;7.20;100.00;101716.88;5281775;28;20024;-66
2022/11/29 10:16:01;;;;;;;30.35;17.98;;;;;;;7.08;100.00;101710.56;5281712;28;20449;-68
2022/11/29 10:18:43;;;;;;;39.45;19.15;;;;;;;6.96;100.00;101708.69;5262367;28;20029;-67
2022/11/29 10:21:23;;;;;;;28.52;17.98;;;;;;;7.02;100.00;101712.38;5262478;28;20029;-67
2022/11/29 10:24:00;;;;;;;25.58;18.08;;;;;;;6.97;100.00;101707.59;5261692;28;20112;-67
2022/11/29 10:26:31;;;;;;;32.28;17.27;;;;;;;6.93;100.00;101702.84;5276531;28;20032;-67
2022/11/29 10:29:03;;;;;;;26.33;18.00;;;;;;;7.08;100.00;101705.03;5272554;28;20013;-67
2022/11/29 10:31:42;;;;;;;25.15;17.77;;;;;;;7.10;100.00;101706.47;5267622;28;20111;-67
2022/11/29 10:34:16;;;;;;;27.33;18.85;;;;;;;7.18;100.00;101702.50;5270309;28;20025;-67
2022/11/29 10:37:01;;;;;;;23.33;15.88;;;;;;;7.28;100.00;101696.34;5261605;28;20104;-68
2022/11/29 10:39:38;;;;;;;28.05;17.95;;;;;;;7.26;100.00;101702.13;5272257;28;20056;-67
2022/11/29 10:45:24;;;;;;;23.45;16.95;;;;;;;7.26;100.00;101701.25;5281699;28;20033;-66
2022/11/29 10:48:17;;;;;;;26.92;16.35;;;;;;;7.30;100.00;101707.97;5282970;28;20059;-67
2022/11/29 10:50:50;;;;;;;30.73;17.73;;;;;;;7.05;100.00;101700.03;5282827;28;20021;-67
2022/11/29 10:53:25;;;;;;;34.60;18.63;;;;;;;7.15;100.00;101706.59;5267208;28;20119;-67
2022/11/29 10:56:04;;;;;;;32.88;17.58;;;;;;;7.17;100.00;101709.09;5261831;28;20017;-67
2022/11/29 10:59:06;;;;;;;37.97;19.60;;;;;;;7.28;100.00;101716.47;5277613;28;20039;-67
2022/11/29 11:01:42;;;;;;;35.25;18.58;;;;;;;7.30;100.00;101710.72;5262055;28;20025;-67
2022/11/29 11:04:16;;;;;;;34.67;18.77;;;;;;;7.25;100.00;101714.22;5280787;28;20028;-66
2022/11/29 11:06:51;;;;;;;27.73;20.02;;;;;;;7.36;100.00;101716.13;5274932;28;20095;-67
2022/11/29 11:09:55;;;;;;;43.63;22.17;;;;;;;7.34;100.00;101715.53;5262016;28;20052;-67
2022/11/29 11:12:30;;;;;;;32.83;19.17;;;;;;;7.37;100.00;101711.44;5217108;28;20398;-67
2022/11/29 11:15:23;;;;;;;36.33;20.83;;;;;;;7.37;100.00;101711.44;5262265;28;20060;-68
2022/11/29 11:18:03;;;;;;;37.78;19.02;;;;;;;7.32;100.00;101705.81;5262795;28;20037;-68
2022/11/29 11:20:38;;;;;;;30.73;18.55;;;;;;;7.37;100.00;101714.19;5261671;28;20483;-69
2022/11/29 11:23:29;;;;;;;27.70;18.70;;;;;;;7.48;100.00;101715.22;5265081;28;20093;-68
2022/11/29 11:26:04;;;;;;;32.25;18.20;;;;;;;7.53;100.00;101713.38;5274534;28;20031;-68
2022/11/29 11:29:00;;;;;;;28.30;17.15;;;;;;;7.53;100.00;101713.38;5280211;28;20035;-67
2022/11/29 11:31:39;;;;;;;28.02;19.85;;;;;;;7.60;100.00;101718.75;5261385;28;20024;-67
2022/11/29 11:34:28;;;;;;;26.17;18.45;;;;;;;7.61;100.00;101723.16;5296926;28;20467;-67
2022/11/29 11:37:15;;;;;;;24.05;17.35;;;;;;;7.72;100.00;101719.53;5283490;28;20071;-67
2022/11/29 11:39:49;;;;;;;25.55;17.83;;;;;;;7.58;100.00;101720.91;5272575;28;20052;-67
2022/11/29 11:42:37;;;;;;;25.08;18.13;;;;;;;7.45;100.00;101727.59;5260444;28;20079;-68
2022/11/29 11:45:09;;;;;;;23.52;16.95;;;;;;;7.38;100.00;101733.25;5278391;28;20024;-68
2022/11/29 11:48:02;;;;;;;50.20;42.67;;;;;;;7.55;100.00;101726.94;5281537;28;20027;-67
2022/11/29 11:50:42;;;;;;;58.58;43.40;;;;;;;7.66;100.00;101733.47;5281382;28;20037;-68
2022/11/29 11:53:22;;;;;;;29.05;19.05;;;;;;;7.72;100.00;101738.84;5282227;28;20035;-67
2022/11/29 11:56:00;;;;;;;24.45;18.77;;;;;;;7.70;100.00;101738.25;5281287;28;20053;-67
2022/11/29 11:58:38;;;;;;;27.80;18.30;;;;;;;7.77;100.00;101740.84;5278541;28;20033;-67
2022/11/29 12:01:35;;;;;;;26.05;19.10;;;;;;;7.79;100.00;101736.75;5282532;28;20029;-67
2022/11/29 12:04:15;;;;;;;26.27;17.45;;;;;;;7.77;100.00;101741.72;5284173;28;20029;-67
2022/11/29 12:06:50;;;;;;;25.92;17.38;;;;;;;7.79;100.00;101744.19;5277756;28;20057;-67
2022/11/29 12:09:27;;;;;;;24.45;18.55;;;;;;;7.65;100.00;101756.66;5264219;28;20029;-67
2022/11/29 12:12:05;;;;;;;24.95;19.05;;;;;;;7.70;100.00;101763.09;5265941;28;20060;-66
2022/11/29 12:14:44;;;;;;;25.30;18.83;;;;;;;7.77;100.00;101762.94;5273248;28;20036;-68
2022/11/29 12:17:40;;;;;;;27.13;19.63;;;;;;;7.72;100.00;101760.09;5272051;28;20032;-68
2022/11/29 12:20:23;;;;;;;30.67;19.17;;;;;;;7.65;100.00;101765.78;5264590;28;20033;-68
2022/11/29 12:23:10;;;;;;;29.15;19.67;;;;;;;7.65;100.00;101759.41;5265453;28;20387;-67
2022/11/29 12:26:00;;;;;;;27.65;18.65;;;;;;;7.86;100.00;101757.84;5280059;28;20450;-67
2022/11/29 12:28:33;;;;;;;26.67;18.92;;;;;;;7.91;100.00;101763.47;5265398;28;20079;-66
2022/11/29 12:31:20;;;;;;;36.53;20.92;;;;;;;8.03;100.00;101767.00;5284800;28;20034;-66
2022/11/29 12:34:03;;;;;;;33.47;20.10;;;;;;;8.03;100.00;101772.53;5285224;28;20016;-67
2022/11/29 12:36:52;;;;;;;40.15;26.00;;;;;;;8.16;100.00;101780.47;5282753;28;20471;-67
2022/11/29 12:39:33;;;;;;;34.05;22.25;;;;;;;8.14;100.00;101774.38;5285512;28;20162;-66
2022/11/29 12:42:19;;;;;;;34.90;25.45;;;;;;;8.22;100.00;101785.00;5284306;28;20023;-67
2022/11/29 12:45:07;;;;;;;44.05;30.20;;;;;;;8.15;100.00;101783.47;5275916;28;20036;-68
2022/11/29 12:48:16;;;;;;;31.33;19.25;;;;;;;8.55;100.00;101797.16;5267123;28;20028;-68
2022/11/29 12:51:06;;;;;;;39.72;23.13;;;;;;;8.18;100.00;101794.91;5241702;28;20045;-67
2022/11/29 12:54:14;;;;;;;36.58;22.67;;;;;;;8.21;100.00;101790.78;5264548;28;20417;-66
2022/11/29 12:57:06;;;;;;;42.22;25.85;;;;;;;8.07;100.00;101793.84;5264104;28;20139;-67
2022/11/29 12:59:50;;;;;;;39.50;23.67;;;;;;;7.88;100.00;101792.44;5263157;28;20079;-67
2022/11/29 13:02:40;;;;;;;39.22;24.77;;;;;;;7.94;100.00;101796.13;5264558;28;20025;-66
2022/11/29 13:05:22;;;;;;;39.40;24.40;;;;;;;7.78;100.00;101787.56;5263849;28;20510;-67
2022/11/29 13:08:05;;;;;;;54.17;27.65;;;;;;;7.67;100.00;101791.22;5271670;28;20416;-66
2022/11/29 13:11:01;;;;;;;41.88;26.27;;;;;;;7.72;100.00;101791.31;5306016;28;20130;-66
2022/11/29 13:13:39;;;;;;;49.20;32.83;;;;;;;7.80;100.00;101796.44;5295833;28;20521;-66
2022/11/29 13:16:38;;;;;;;78.03;56.70;;;;;;;7.83;100.00;101792.34;5283118;28;20044;-67
2022/11/29 13:19:27;;;;;;;44.00;29.65;;;;;;;7.91;100.00;101796.63;5269214;28;20490;-67
2022/11/29 13:22:24;;;;;;;47.08;28.65;;;;;;;7.97;100.00;101801.13;5305676;28;20027;-67
2022/11/29 13:25:03;;;;;;;41.88;26.15;;;;;;;8.05;100.00;101803.47;5291768;28;20028;-67
2022/11/29 13:27:40;;;;;;;48.85;31.05;;;;;;;8.16;100.00;101797.06;5276460;28;20024;-66
2022/11/29 13:30:14;;;;;;;51.30;31.58;;;;;;;8.14;100.00;101792.88;5262966;28;20107;-67
2022/11/29 13:33:23;;;;;;;52.65;30.67;;;;;;;8.05;100.00;101798.81;5278871;28;20463;-66
2022/11/29 13:36:19;;;;;;;50.35;29.40;;;;;;;7.88;100.00;101797.13;5198497;28;20074;-66
2022/11/29 13:39:03;;;;;;;44.92;30.05;;;;;;;7.88;100.00;101803.47;5265762;28;20024;-67
2022/11/29 13:41:53;;;;;;;49.03;31.25;;;;;;;7.95;100.00;101806.94;5303096;28;20431;-67
2022/11/29 13:45:04;;;;;;;48.10;30.30;;;;;;;8.06;100.00;101816.22;5303890;28;20058;-67
2022/11/29 13:47:50;;;;;;;44.47;28.73;;;;;;;8.09;100.00;101806.59;5276739;28;20072;-67
2022/11/29 13:50:38;;;;;;;48.22;30.50;;;;;;;7.97;100.00;101818.53;5283813;28;20082;-67
2022/11/29 13:53:16;;;;;;;44.50;29.35;;;;;;;8.02;100.00;101807.59;5281160;28;20540;-65
2022/11/29 13:56:01;;;;;;;46.42;30.70;;;;;;;8.17;100.00;101818.06;5261787;28;20068;-64
2022/11/29 13:58:36;;;;;;;52.80;32.00;;;;;;;8.20;100.00;101814.81;5263003;28;20021;-67
2022/11/29 14:01:10;;;;;;;40.83;27.25;;;;;;;8.16;100.00;101812.81;5261946;28;20040;-67
2022/11/29 14:04:00;;;;;;;44.53;27.85;;;;;;;8.32;100.00;101813.91;5262653;28;20083;-70
2022/11/29 14:06:39;;;;;;;47.92;30.20;;;;;;;8.27;100.00;101807.19;5266031;28;20065;-69
2022/11/29 14:09:24;;;;;;;58.88;40.38;;;;;;;8.33;100.00;101807.28;5262714;28;20037;-71
2022/11/29 14:12:01;;;;;;;47.33;30.63;;;;;;;8.37;100.00;101808.47;5262454;28;20021;-70
2022/11/29 14:14:54;;;;;;;50.28;30.15;;;;;;;8.49;100.00;101814.78;5262022;28;20052;-67
2022/11/29 14:17:32;;;;;;;45.50;30.23;;;;;;;8.34;100.00;101811.72;5261536;28;20063;-67
2022/11/29 14:20:22;;;;;;;48.55;29.15;;;;;;;8.42;100.00;101814.94;5263841;28;20029;-67
2022/11/29 14:23:05;;;;;;;43.08;28.33;;;;;;;8.42;100.00;101814.09;5268580;28;20071;-67
2022/11/29 14:25:39;;;;;;;46.20;29.33;;;;;;;8.45;100.00;101813.59;5270589;28;20127;-66
2022/11/29 14:28:13;;;;;;;44.72;27.98;;;;;;;8.42;100.00;101822.41;5274744;28;20363;-66
2022/11/29 14:30:54;;;;;;;45.13;29.90;;;;;;;8.37;100.00;101825.88;5285552;28;20036;-65
2022/11/29 14:33:46;;;;;;;47.88;29.95;;;;;;;8.42;100.00;101826.00;5292161;28;20024;-66
2022/11/29 14:36:24;;;;;;;56.00;38.17;;;;;;;8.77;100.00;101826.78;5275019;28;20451;-65
2022/11/29 14:39:13;;;;;;;55.90;36.47;;;;;;;8.81;100.00;101830.75;5282896;28;20024;-66
2022/11/29 14:42:00;;;;;;;54.20;36.80;;;;;;;8.81;100.00;101828.81;5282465;28;20450;-66
2022/11/29 14:44:33;;;;;;;52.78;33.30;;;;;;;8.70;100.00;101830.59;5270219;28;20079;-67
2022/11/29 14:47:20;;;;;;;43.47;32.55;;;;;;;8.76;100.00;101831.50;5261921;28;20021;-67
2022/11/29 14:49:54;;;;;;;39.60;25.55;;;;;;;8.52;100.00;101830.03;5262007;28;20032;-68
2022/11/29 14:52:27;;;;;;;47.60;28.25;;;;;;;8.49;100.00;101826.66;5260857;28;20424;-68
2022/11/29 14:55:02;;;;;;;34.60;23.50;;;;;;;9.07;100.00;101826.41;5280219;28;20032;-69
2022/11/29 14:57:45;;;;;;;39.05;25.52;;;;;;;8.85;100.00;101837.44;5273967;28;20071;-68
2022/11/29 15:00:25;;;;;;;29.83;21.38;;;;;;;9.33;100.00;101827.56;5271248;28;20040;-68
2022/11/29 15:02:59;;;;;;;34.30;24.02;;;;;;;9.34;100.00;101832.84;5263131;28;20025;-68
2022/11/29 15:05:37;;;;;;;39.22;25.48;;;;;;;9.16;100.00;101832.34;5281589;28;20055;-68
2022/11/29 15:08:33;;;;;;;33.65;22.60;;;;;;;9.45;100.00;101831.06;5282217;28;20020;-68
2022/11/29 15:11:40;;;;;;;30.05;19.17;;;;;;;9.50;100.00;101833.88;5280349;28;20082;-69
2022/11/29 15:14:48;;;;;;;30.75;21.20;;;;;;;9.60;100.00;101840.66;5251514;28;20055;-68
2022/11/29 15:17:52;;;;;;;37.50;26.63;;;;;;;9.54;100.00;101840.59;5295120;28;20032;-67
2022/11/29 15:20:34;;;;;;;29.70;21.33;;;;;;;9.22;100.00;101842.38;5260771;28;20076;-66
2022/11/29 15:23:12;;;;;;;34.30;21.95;;;;;;;9.33;100.00;101839.50;5267620;28;20319;-67
2022/11/29 15:25:49;;;;;;;29.98;20.58;;;;;;;9.24;100.00;101842.97;5281412;28;20036;-67
2022/11/29 15:28:23;;;;;;;35.45;26.20;;;;;;;9.18;100.00;101838.44;5285743;28;20064;-68
2022/11/29 15:31:04;;;;;;;34.35;22.65;;;;;;;9.40;100.00;101844.81;5294414;28;20031;-68
2022/11/29 15:33:39;;;;;;;33.35;23.90;;;;;;;9.18;100.00;101843.97;5306514;28;20051;-67
2022/11/29 15:36:16;;;;;;;38.38;27.45;;;;;;;9.08;100.00;101855.75;5268375;28;20039;-67
2022/11/29 15:38:49;;;;;;;39.67;25.20;;;;;;;9.03;100.00;101850.16;5267266;28;20033;-67
2022/11/29 15:41:26;;;;;;;43.83;29.38;;;;;;;8.95;100.00;101856.97;5274613;28;20036;-67
2022/11/29 15:44:03;;;;;;;42.10;27.77;;;;;;;8.90;100.00;101854.13;5275979;28;20036;-68
2022/11/29 15:46:34;;;;;;;44.40;30.02;;;;;;;8.71;100.00;101857.13;5279562;28;20528;-68
2022/11/29 15:49:25;;;;;;;51.50;35.10;;;;;;;8.77;100.00;101859.97;5268285;28;20104;-69
2022/11/29 15:52:02;;;;;;;40.28;26.90;;;;;;;8.74;100.00;101857.72;5274332;28;20029;-67
2022/11/29 15:54:38;;;;;;;45.75;31.77;;;;;;;8.77;100.00;101863.63;5268147;28;20061;-68
2022/11/29 15:57:18;;;;;;;37.35;27.20;;;;;;;8.63;100.00;101859.50;5289129;28;20041;-69
2022/11/29 15:59:54;;;;;;;42.25;33.10;;;;;;;8.72;100.00;101858.00;5291407;28;20047;-68
2022/11/29 16:02:32;;;;;;;39.90;26.67;;;;;;;8.70;100.00;101860.16;5288646;28;20042;-66
2022/11/29 16:05:19;;;;;;;49.00;32.03;;;;;;;8.68;100.00;101851.28;5266874;28;20055;-67
2022/11/29 16:07:54;;;;;;;50.17;32.63;;;;;;;8.64;100.00;101856.50;5304698;28;20032;-66
2022/11/29 16:10:35;;;;;;;50.60;37.60;;;;;;;8.66;100.00;101859.81;5269061;28;20025;-67
2022/11/29 16:13:26;;;;;;;43.20;29.33;;;;;;;8.63;100.00;101865.84;5267998;28;20472;-67
2022/11/29 16:16:16;;;;;;;50.63;29.33;;;;;;;8.62;100.00;101866.13;5284993;28;20115;-68
2022/11/29 16:18:49;;;;;;;44.97;29.73;;;;;;;8.51;100.00;101865.09;5282966;28;20375;-66
2022/11/29 16:21:27;;;;;;;43.20;28.10;;;;;;;8.52;100.00;101865.97;5277341;28;20024;-68
2022/11/29 16:24:18;;;;;;;47.30;31.50;;;;;;;8.60;100.00;101873.84;5276902;28;20048;-68
2022/11/29 16:26:50;;;;;;;45.10;30.35;;;;;;;8.62;100.00;101866.97;5285178;28;20468;-67
2022/11/29 16:29:29;;;;;;;48.90;31.33;;;;;;;8.56;100.00;101875.41;5280282;28;20103;-67
2022/11/29 16:32:12;;;;;;;45.10;29.67;;;;;;;8.58;100.00;101864.94;5306063;28;20027;-67
2022/11/29 16:34:44;;;;;;;43.95;29.00;;;;;;;8.54;100.00;101864.63;5305490;28;20028;-68
2022/11/29 16:37:24;;;;;;;41.13;28.48;;;;;;;8.59;100.00;101863.84;5283302;28;20033;-67
